sensor_id;sensor_type;location;lat;lon;timestamp;P1;durP1;ratioP1;P2;durP2;ratioP2
21012;SDS011;10664;53.582;9.712;2022-12-18T00:01:36;8.67;;;7.57;;
21012;SDS011;10664;53.582;9.712;2022-12-18T00:04:05;9.13;;;7.23;;
21012;SDS011;10664;53.582;9.712;2022-12-18T00:06:32;10.97;;;7.70;;
21012;SDS011;10664;53.582;9.712;2022-12-18T00:08:59;10.40;;;8.33;;
21012;SDS011;10664;53.582;9.712;2022-12-18T00:11:27;10.63;;;7.70;;
21012;SDS011;10664;53.582;9.712;2022-12-18T00:13:53;8.73;;;7.03;;
21012;SDS011;10664;53.582;9.712;2022-12-18T00:16:20;9.43;;;6.93;;
21012;SDS011;10664;53.582;9.712;2022-12-18T00:18:47;8.80;;;7.17;;
21012;SDS011;10664;53.582;9.712;2022-12-18T00:21:13;10.40;;;7.40;;
21012;SDS011;10664;53.582;9.712;2022-12-18T00:23:39;11.03;;;7.60;;
21012;SDS011;10664;53.582;9.712;2022-12-18T00:26:07;11.17;;;7.73;;
21012;SDS011;10664;53.582;9.712;2022-12-18T00:28:34;8.60;;;7.17;;
21012;SDS011;10664;53.582;9.712;2022-12-18T00:31:01;10.10;;;7.57;;
21012;SDS011;10664;53.582;9.712;2022-12-18T00:33:27;8.63;;;7.17;;
21012;SDS011;10664;53.582;9.712;2022-12-18T00:35:53;10.90;;;7.77;;
21012;SDS011;10664;53.582;9.712;2022-12-18T00:38:19;9.13;;;6.83;;
21012;SDS011;10664;53.582;9.712;2022-12-18T00:40:45;9.07;;;6.77;;
21012;SDS011;10664;53.582;9.712;2022-12-18T00:43:11;8.80;;;7.10;;
21012;SDS011;10664;53.582;9.712;2022-12-18T00:45:37;10.10;;;7.17;;
21012;SDS011;10664;53.582;9.712;2022-12-18T00:48:03;9.67;;;6.93;;
21012;SDS011;10664;53.582;9.712;2022-12-18T00:50:29;8.57;;;7.03;;
21012;SDS011;10664;53.582;9.712;2022-12-18T00:52:55;10.13;;;7.07;;
21012;SDS011;10664;53.582;9.712;2022-12-18T00:55:21;7.93;;;7.03;;
21012;SDS011;10664;53.582;9.712;2022-12-18T00:57:47;10.17;;;6.90;;
21012;SDS011;10664;53.582;9.712;2022-12-18T01:00:13;9.67;;;7.30;;
21012;SDS011;10664;53.582;9.712;2022-12-18T01:02:40;11.27;;;8.03;;
21012;SDS011;10664;53.582;9.712;2022-12-18T01:05:07;9.50;;;7.37;;
21012;SDS011;10664;53.582;9.712;2022-12-18T01:07:33;9.30;;;6.87;;
21012;SDS011;10664;53.582;9.712;2022-12-18T01:09:59;9.00;;;6.83;;
21012;SDS011;10664;53.582;9.712;2022-12-18T01:12:25;8.93;;;6.93;;
21012;SDS011;10664;53.582;9.712;2022-12-18T01:14:51;10.33;;;7.63;;
21012;SDS011;10664;53.582;9.712;2022-12-18T01:17:17;10.27;;;7.30;;
21012;SDS011;10664;53.582;9.712;2022-12-18T01:19:42;8.30;;;6.93;;
21012;SDS011;10664;53.582;9.712;2022-12-18T01:22:08;9.13;;;7.30;;
21012;SDS011;10664;53.582;9.712;2022-12-18T01:24:34;9.23;;;7.00;;
21012;SDS011;10664;53.582;9.712;2022-12-18T01:27:00;9.30;;;6.83;;
21012;SDS011;10664;53.582;9.712;2022-12-18T01:29:26;9.13;;;7.30;;
21012;SDS011;10664;53.582;9.712;2022-12-18T01:31:54;8.20;;;6.80;;
21012;SDS011;10664;53.582;9.712;2022-12-18T01:34:20;10.53;;;7.80;;
21012;SDS011;10664;53.582;9.712;2022-12-18T01:36:46;9.20;;;7.47;;
21012;SDS011;10664;53.582;9.712;2022-12-18T01:39:13;8.83;;;6.60;;
21012;SDS011;10664;53.582;9.712;2022-12-18T01:41:39;9.77;;;7.20;;
21012;SDS011;10664;53.582;9.712;2022-12-18T01:47:09;10.63;;;7.20;;
21012;SDS011;10664;53.582;9.712;2022-12-18T01:49:35;9.40;;;6.93;;
21012;SDS011;10664;53.582;9.712;2022-12-18T01:52:01;9.63;;;7.40;;
21012;SDS011;10664;53.582;9.712;2022-12-18T01:54:29;9.67;;;6.90;;
21012;SDS011;10664;53.582;9.712;2022-12-18T01:56:55;8.17;;;6.57;;
21012;SDS011;10664;53.582;9.712;2022-12-18T01:59:21;8.20;;;6.67;;
21012;SDS011;10664;53.582;9.712;2022-12-18T02:01:47;8.90;;;7.00;;
21012;SDS011;10664;53.582;9.712;2022-12-18T02:04:23;9.67;;;7.47;;
21012;SDS011;10664;53.582;9.712;2022-12-18T02:06:51;8.13;;;6.90;;
21012;SDS011;10664;53.582;9.712;2022-12-18T02:09:19;9.30;;;7.10;;
21012;SDS011;10664;53.582;9.712;2022-12-18T02:11:49;10.03;;;7.33;;
21012;SDS011;10664;53.582;9.712;2022-12-18T02:16:59;11.33;;;7.53;;
21012;SDS011;10664;53.582;9.712;2022-12-18T02:19:39;9.23;;;6.87;;
21012;SDS011;10664;53.582;9.712;2022-12-18T02:22:11;12.10;;;7.90;;
21012;SDS011;10664;53.582;9.712;2022-12-18T02:27:27;11.47;;;7.43;;
21012;SDS011;10664;53.582;9.712;2022-12-18T02:29:55;8.17;;;6.43;;
21012;SDS011;10664;53.582;9.712;2022-12-18T02:32:24;7.93;;;6.70;;
21012;SDS011;10664;53.582;9.712;2022-12-18T02:34:51;7.57;;;6.17;;
21012;SDS011;10664;53.582;9.712;2022-12-18T02:37:18;8.13;;;6.90;;
21012;SDS011;10664;53.582;9.712;2022-12-18T02:39:46;8.83;;;6.63;;
21012;SDS011;10664;53.582;9.712;2022-12-18T02:42:12;10.40;;;7.40;;
21012;SDS011;10664;53.582;9.712;2022-12-18T02:44:43;10.20;;;7.13;;
21012;SDS011;10664;53.582;9.712;2022-12-18T02:47:12;11.10;;;7.07;;
21012;SDS011;10664;53.582;9.712;2022-12-18T02:49:43;11.10;;;8.17;;
21012;SDS011;10664;53.582;9.712;2022-12-18T02:57:24;9.57;;;6.93;;
21012;SDS011;10664;53.582;9.712;2022-12-18T03:00:33;10.50;;;7.03;;
21012;SDS011;10664;53.582;9.712;2022-12-18T03:02:57;8.83;;;6.70;;
21012;SDS011;10664;53.582;9.712;2022-12-18T03:08:01;10.30;;;7.23;;
21012;SDS011;10664;53.582;9.712;2022-12-18T03:10:29;8.33;;;6.80;;
21012;SDS011;10664;53.582;9.712;2022-12-18T03:13:02;9.13;;;7.03;;
21012;SDS011;10664;53.582;9.712;2022-12-18T03:15:30;9.50;;;7.27;;
21012;SDS011;10664;53.582;9.712;2022-12-18T03:18:07;9.70;;;6.87;;
21012;SDS011;10664;53.582;9.712;2022-12-18T03:20:35;9.13;;;6.73;;
21012;SDS011;10664;53.582;9.712;2022-12-18T03:23:04;7.67;;;6.80;;
21012;SDS011;10664;53.582;9.712;2022-12-18T03:25:30;8.90;;;6.37;;
21012;SDS011;10664;53.582;9.712;2022-12-18T03:27:58;8.30;;;6.77;;
21012;SDS011;10664;53.582;9.712;2022-12-18T03:30:25;7.33;;;6.40;;
21012;SDS011;10664;53.582;9.712;2022-12-18T03:33:04;8.43;;;7.03;;
21012;SDS011;10664;53.582;9.712;2022-12-18T03:35:32;9.33;;;7.40;;
21012;SDS011;10664;53.582;9.712;2022-12-18T03:37:59;8.43;;;6.77;;
21012;SDS011;10664;53.582;9.712;2022-12-18T03:40:35;8.00;;;6.77;;
21012;SDS011;10664;53.582;9.712;2022-12-18T03:43:16;7.93;;;6.10;;
21012;SDS011;10664;53.582;9.712;2022-12-18T03:45:44;7.80;;;6.13;;
21012;SDS011;10664;53.582;9.712;2022-12-18T03:48:29;7.93;;;6.63;;
21012;SDS011;10664;53.582;9.712;2022-12-18T03:50:57;10.60;;;6.40;;
21012;SDS011;10664;53.582;9.712;2022-12-18T03:56:00;8.30;;;6.57;;
21012;SDS011;10664;53.582;9.712;2022-12-18T03:58:26;8.70;;;6.60;;
21012;SDS011;10664;53.582;9.712;2022-12-18T04:00:53;7.37;;;5.90;;
21012;SDS011;10664;53.582;9.712;2022-12-18T04:03:21;7.20;;;5.97;;
21012;SDS011;10664;53.582;9.712;2022-12-18T04:05:48;7.43;;;6.40;;
21012;SDS011;10664;53.582;9.712;2022-12-18T04:08:15;7.83;;;6.00;;
21012;SDS011;10664;53.582;9.712;2022-12-18T04:10:41;8.30;;;6.40;;
21012;SDS011;10664;53.582;9.712;2022-12-18T04:13:08;8.23;;;6.30;;
21012;SDS011;10664;53.582;9.712;2022-12-18T04:15:34;9.87;;;6.50;;
21012;SDS011;10664;53.582;9.712;2022-12-18T04:18:00;6.93;;;6.07;;
21012;SDS011;10664;53.582;9.712;2022-12-18T04:20:26;7.83;;;6.40;;
21012;SDS011;10664;53.582;9.712;2022-12-18T04:22:52;7.93;;;6.17;;
21012;SDS011;10664;53.582;9.712;2022-12-18T04:25:18;7.57;;;6.63;;
21012;SDS011;10664;53.582;9.712;2022-12-18T04:27:44;7.50;;;6.67;;
21012;SDS011;10664;53.582;9.712;2022-12-18T04:30:10;9.43;;;6.40;;
21012;SDS011;10664;53.582;9.712;2022-12-18T04:32:36;8.73;;;7.03;;
21012;SDS011;10664;53.582;9.712;2022-12-18T04:35:03;8.47;;;6.60;;
21012;SDS011;10664;53.582;9.712;2022-12-18T04:37:31;8.40;;;6.80;;
21012;SDS011;10664;53.582;9.712;2022-12-18T04:39:57;8.17;;;6.27;;
21012;SDS011;10664;53.582;9.712;2022-12-18T04:42:23;8.40;;;6.40;;
21012;SDS011;10664;53.582;9.712;2022-12-18T04:44:49;6.77;;;6.07;;
21012;SDS011;10664;53.582;9.712;2022-12-18T04:47:15;7.57;;;5.90;;
21012;SDS011;10664;53.582;9.712;2022-12-18T04:49:41;8.30;;;6.37;;
21012;SDS011;10664;53.582;9.712;2022-12-18T04:52:07;7.43;;;6.00;;
21012;SDS011;10664;53.582;9.712;2022-12-18T04:54:33;6.77;;;5.60;;
21012;SDS011;10664;53.582;9.712;2022-12-18T04:56:59;7.80;;;5.80;;
21012;SDS011;10664;53.582;9.712;2022-12-18T04:59:25;7.07;;;5.73;;
21012;SDS011;10664;53.582;9.712;2022-12-18T05:01:50;8.47;;;5.40;;
21012;SDS011;10664;53.582;9.712;2022-12-18T05:04:16;7.27;;;5.63;;
21012;SDS011;10664;53.582;9.712;2022-12-18T05:06:42;7.17;;;5.87;;
21012;SDS011;10664;53.582;9.712;2022-12-18T05:09:08;6.87;;;6.10;;
21012;SDS011;10664;53.582;9.712;2022-12-18T05:11:37;7.50;;;5.53;;
21012;SDS011;10664;53.582;9.712;2022-12-18T05:14:03;7.30;;;5.47;;
21012;SDS011;10664;53.582;9.712;2022-12-18T05:16:29;7.13;;;5.53;;
21012;SDS011;10664;53.582;9.712;2022-12-18T05:18:55;8.60;;;5.97;;
21012;SDS011;10664;53.582;9.712;2022-12-18T05:21:21;8.33;;;5.37;;
21012;SDS011;10664;53.582;9.712;2022-12-18T05:23:47;6.43;;;5.53;;
21012;SDS011;10664;53.582;9.712;2022-12-18T05:26:14;8.60;;;5.90;;
21012;SDS011;10664;53.582;9.712;2022-12-18T05:28:42;7.77;;;5.30;;
21012;SDS011;10664;53.582;9.712;2022-12-18T05:31:08;7.23;;;5.63;;
21012;SDS011;10664;53.582;9.712;2022-12-18T05:33:34;7.40;;;5.43;;
21012;SDS011;10664;53.582;9.712;2022-12-18T05:36:02;6.53;;;5.50;;
21012;SDS011;10664;53.582;9.712;2022-12-18T05:38:29;6.10;;;5.13;;
21012;SDS011;10664;53.582;9.712;2022-12-18T05:40:56;7.23;;;5.40;;
21012;SDS011;10664;53.582;9.712;2022-12-18T05:43:24;6.57;;;5.40;;
21012;SDS011;10664;53.582;9.712;2022-12-18T05:45:50;6.50;;;5.00;;
21012;SDS011;10664;53.582;9.712;2022-12-18T05:48:17;5.93;;;5.20;;
21012;SDS011;10664;53.582;9.712;2022-12-18T05:50:43;7.43;;;5.50;;
21012;SDS011;10664;53.582;9.712;2022-12-18T05:53:10;6.67;;;5.20;;
21012;SDS011;10664;53.582;9.712;2022-12-18T05:55:37;7.13;;;5.43;;
21012;SDS011;10664;53.582;9.712;2022-12-18T05:58:03;5.77;;;4.97;;
21012;SDS011;10664;53.582;9.712;2022-12-18T06:00:30;7.33;;;5.50;;
21012;SDS011;10664;53.582;9.712;2022-12-18T06:02:56;6.97;;;5.67;;
21012;SDS011;10664;53.582;9.712;2022-12-18T06:05:22;7.67;;;5.33;;
21012;SDS011;10664;53.582;9.712;2022-12-18T06:07:48;7.07;;;5.20;;
21012;SDS011;10664;53.582;9.712;2022-12-18T06:10:14;6.37;;;5.47;;
21012;SDS011;10664;53.582;9.712;2022-12-18T06:12:40;7.27;;;5.60;;
21012;SDS011;10664;53.582;9.712;2022-12-18T06:15:06;6.67;;;5.10;;
21012;SDS011;10664;53.582;9.712;2022-12-18T06:17:33;6.80;;;4.90;;
21012;SDS011;10664;53.582;9.712;2022-12-18T06:19:59;6.33;;;5.17;;
21012;SDS011;10664;53.582;9.712;2022-12-18T06:22:26;8.00;;;5.50;;
21012;SDS011;10664;53.582;9.712;2022-12-18T06:24:52;6.43;;;5.37;;
21012;SDS011;10664;53.582;9.712;2022-12-18T06:27:18;6.30;;;4.90;;
21012;SDS011;10664;53.582;9.712;2022-12-18T06:29:43;6.03;;;5.23;;
21012;SDS011;10664;53.582;9.712;2022-12-18T06:32:10;6.07;;;4.93;;
21012;SDS011;10664;53.582;9.712;2022-12-18T06:34:37;6.90;;;5.00;;
21012;SDS011;10664;53.582;9.712;2022-12-18T06:37:03;6.97;;;5.20;;
21012;SDS011;10664;53.582;9.712;2022-12-18T06:39:29;8.17;;;5.83;;
21012;SDS011;10664;53.582;9.712;2022-12-18T06:41:55;6.90;;;5.57;;
21012;SDS011;10664;53.582;9.712;2022-12-18T06:44:21;5.27;;;4.73;;
21012;SDS011;10664;53.582;9.712;2022-12-18T06:46:47;6.17;;;4.90;;
21012;SDS011;10664;53.582;9.712;2022-12-18T06:49:13;6.43;;;5.13;;
21012;SDS011;10664;53.582;9.712;2022-12-18T06:51:40;6.33;;;5.17;;
21012;SDS011;10664;53.582;9.712;2022-12-18T06:54:06;7.10;;;5.37;;
21012;SDS011;10664;53.582;9.712;2022-12-18T06:56:32;6.67;;;5.10;;
21012;SDS011;10664;53.582;9.712;2022-12-18T06:58:58;5.53;;;4.73;;
21012;SDS011;10664;53.582;9.712;2022-12-18T07:01:24;7.00;;;5.03;;
21012;SDS011;10664;53.582;9.712;2022-12-18T07:03:54;6.13;;;5.23;;
21012;SDS011;10664;53.582;9.712;2022-12-18T07:06:20;7.10;;;5.40;;
21012;SDS011;10664;53.582;9.712;2022-12-18T07:08:47;7.07;;;5.30;;
21012;SDS011;10664;53.582;9.712;2022-12-18T07:11:14;6.57;;;5.30;;
21012;SDS011;10664;53.582;9.712;2022-12-18T07:13:40;6.10;;;4.70;;
21012;SDS011;10664;53.582;9.712;2022-12-18T07:16:13;6.90;;;4.73;;
21012;SDS011;10664;53.582;9.712;2022-12-18T07:18:39;6.50;;;5.37;;
21012;SDS011;10664;53.582;9.712;2022-12-18T07:21:06;6.87;;;4.93;;
21012;SDS011;10664;53.582;9.712;2022-12-18T07:23:33;6.93;;;5.47;;
21012;SDS011;10664;53.582;9.712;2022-12-18T07:26:03;6.63;;;5.23;;
21012;SDS011;10664;53.582;9.712;2022-12-18T07:28:29;8.03;;;5.50;;
21012;SDS011;10664;53.582;9.712;2022-12-18T07:30:55;6.93;;;5.70;;
21012;SDS011;10664;53.582;9.712;2022-12-18T07:33:21;6.57;;;5.20;;
21012;SDS011;10664;53.582;9.712;2022-12-18T07:35:47;6.70;;;5.37;;
21012;SDS011;10664;53.582;9.712;2022-12-18T07:38:13;8.37;;;6.07;;
21012;SDS011;10664;53.582;9.712;2022-12-18T07:40:39;7.03;;;5.47;;
21012;SDS011;10664;53.582;9.712;2022-12-18T07:43:05;5.83;;;5.23;;
21012;SDS011;10664;53.582;9.712;2022-12-18T07:45:31;7.80;;;5.53;;
21012;SDS011;10664;53.582;9.712;2022-12-18T07:47:57;8.73;;;5.33;;
21012;SDS011;10664;53.582;9.712;2022-12-18T07:50:23;6.30;;;5.00;;
21012;SDS011;10664;53.582;9.712;2022-12-18T07:52:49;7.27;;;5.20;;
21012;SDS011;10664;53.582;9.712;2022-12-18T07:55:15;6.70;;;4.90;;
21012;SDS011;10664;53.582;9.712;2022-12-18T07:57:41;6.83;;;5.07;;
21012;SDS011;10664;53.582;9.712;2022-12-18T08:00:07;7.17;;;5.00;;
21012;SDS011;10664;53.582;9.712;2022-12-18T08:02:33;6.60;;;4.70;;
21012;SDS011;10664;53.582;9.712;2022-12-18T08:04:59;5.87;;;4.57;;
21012;SDS011;10664;53.582;9.712;2022-12-18T08:07:25;6.43;;;5.10;;
21012;SDS011;10664;53.582;9.712;2022-12-18T08:09:51;7.20;;;4.90;;
21012;SDS011;10664;53.582;9.712;2022-12-18T08:12:17;6.83;;;5.30;;
21012;SDS011;10664;53.582;9.712;2022-12-18T08:14:43;5.93;;;4.50;;
21012;SDS011;10664;53.582;9.712;2022-12-18T08:17:09;6.93;;;5.00;;
21012;SDS011;10664;53.582;9.712;2022-12-18T08:19:35;5.70;;;4.80;;
21012;SDS011;10664;53.582;9.712;2022-12-18T08:22:01;6.77;;;4.57;;
21012;SDS011;10664;53.582;9.712;2022-12-18T08:24:27;20.03;;;10.43;;
21012;SDS011;10664;53.582;9.712;2022-12-18T08:26:53;86.33;;;43.03;;
21012;SDS011;10664;53.582;9.712;2022-12-18T08:29:19;118.77;;;60.63;;
21012;SDS011;10664;53.582;9.712;2022-12-18T08:31:45;128.23;;;69.97;;
21012;SDS011;10664;53.582;9.712;2022-12-18T08:34:11;104.80;;;61.67;;
21012;SDS011;10664;53.582;9.712;2022-12-18T08:36:37;98.90;;;59.27;;
21012;SDS011;10664;53.582;9.712;2022-12-18T08:39:03;73.50;;;49.40;;
21012;SDS011;10664;53.582;9.712;2022-12-18T08:41:29;49.37;;;33.03;;
21012;SDS011;10664;53.582;9.712;2022-12-18T08:43:55;29.70;;;20.80;;
21012;SDS011;10664;53.582;9.712;2022-12-18T08:46:41;20.80;;;14.53;;
21012;SDS011;10664;53.582;9.712;2022-12-18T08:49:08;15.53;;;11.10;;
21012;SDS011;10664;53.582;9.712;2022-12-18T08:51:34;12.23;;;8.73;;
21012;SDS011;10664;53.582;9.712;2022-12-18T08:54:00;9.10;;;7.93;;
21012;SDS011;10664;53.582;9.712;2022-12-18T08:56:26;9.23;;;6.70;;
21012;SDS011;10664;53.582;9.712;2022-12-18T08:58:53;8.03;;;6.30;;
21012;SDS011;10664;53.582;9.712;2022-12-18T09:01:19;8.43;;;5.80;;
21012;SDS011;10664;53.582;9.712;2022-12-18T09:03:45;8.30;;;5.90;;
21012;SDS011;10664;53.582;9.712;2022-12-18T09:06:13;7.30;;;5.30;;
21012;SDS011;10664;53.582;9.712;2022-12-18T09:08:40;8.70;;;6.17;;
21012;SDS011;10664;53.582;9.712;2022-12-18T09:11:10;7.30;;;5.57;;
21012;SDS011;10664;53.582;9.712;2022-12-18T09:13:37;7.33;;;5.37;;
21012;SDS011;10664;53.582;9.712;2022-12-18T09:16:03;7.07;;;5.57;;
21012;SDS011;10664;53.582;9.712;2022-12-18T09:18:29;6.27;;;4.60;;
21012;SDS011;10664;53.582;9.712;2022-12-18T09:20:55;6.87;;;5.20;;
21012;SDS011;10664;53.582;9.712;2022-12-18T09:23:21;6.67;;;5.10;;
21012;SDS011;10664;53.582;9.712;2022-12-18T09:25:47;6.20;;;4.97;;
21012;SDS011;10664;53.582;9.712;2022-12-18T09:28:14;6.03;;;5.00;;
21012;SDS011;10664;53.582;9.712;2022-12-18T09:30:42;5.10;;;4.60;;
21012;SDS011;10664;53.582;9.712;2022-12-18T09:33:08;7.13;;;5.43;;
21012;SDS011;10664;53.582;9.712;2022-12-18T09:35:40;6.63;;;4.60;;
21012;SDS011;10664;53.582;9.712;2022-12-18T09:38:07;7.53;;;5.40;;
21012;SDS011;10664;53.582;9.712;2022-12-18T09:40:40;6.83;;;5.30;;
21012;SDS011;10664;53.582;9.712;2022-12-18T09:43:09;6.97;;;5.07;;
21012;SDS011;10664;53.582;9.712;2022-12-18T09:45:40;6.40;;;5.07;;
21012;SDS011;10664;53.582;9.712;2022-12-18T09:48:10;6.03;;;4.70;;
21012;SDS011;10664;53.582;9.712;2022-12-18T09:50:39;6.70;;;5.50;;
21012;SDS011;10664;53.582;9.712;2022-12-18T09:53:06;7.30;;;5.40;;
21012;SDS011;10664;53.582;9.712;2022-12-18T09:55:37;7.00;;;5.53;;
21012;SDS011;10664;53.582;9.712;2022-12-18T09:58:16;6.67;;;5.20;;
21012;SDS011;10664;53.582;9.712;2022-12-18T10:00:44;6.97;;;5.10;;
21012;SDS011;10664;53.582;9.712;2022-12-18T10:03:11;6.77;;;4.80;;
21012;SDS011;10664;53.582;9.712;2022-12-18T10:05:59;6.53;;;5.00;;
21012;SDS011;10664;53.582;9.712;2022-12-18T10:14:02;5.57;;;4.70;;
21012;SDS011;10664;53.582;9.712;2022-12-18T10:19:21;6.37;;;4.97;;
21012;SDS011;10664;53.582;9.712;2022-12-18T10:21:51;5.40;;;4.77;;
21012;SDS011;10664;53.582;9.712;2022-12-18T10:24:26;5.73;;;4.97;;
21012;SDS011;10664;53.582;9.712;2022-12-18T10:26:55;5.43;;;4.50;;
21012;SDS011;10664;53.582;9.712;2022-12-18T10:29:25;8.07;;;5.07;;
21012;SDS011;10664;53.582;9.712;2022-12-18T10:31:51;6.47;;;5.00;;
21012;SDS011;10664;53.582;9.712;2022-12-18T10:34:17;7.17;;;5.27;;
21012;SDS011;10664;53.582;9.712;2022-12-18T10:36:43;7.50;;;5.80;;
21012;SDS011;10664;53.582;9.712;2022-12-18T10:41:41;7.53;;;5.37;;
21012;SDS011;10664;53.582;9.712;2022-12-18T10:44:11;7.10;;;5.10;;
21012;SDS011;10664;53.582;9.712;2022-12-18T10:46:37;7.23;;;5.17;;
21012;SDS011;10664;53.582;9.712;2022-12-18T10:49:03;6.43;;;5.10;;
21012;SDS011;10664;53.582;9.712;2022-12-18T10:51:30;8.10;;;5.43;;
21012;SDS011;10664;53.582;9.712;2022-12-18T10:54:05;6.77;;;5.27;;
21012;SDS011;10664;53.582;9.712;2022-12-18T10:56:35;7.23;;;5.00;;
21012;SDS011;10664;53.582;9.712;2022-12-18T10:59:06;5.93;;;4.63;;
21012;SDS011;10664;53.582;9.712;2022-12-18T11:01:52;6.83;;;4.97;;
21012;SDS011;10664;53.582;9.712;2022-12-18T11:04:21;6.83;;;4.83;;
21012;SDS011;10664;53.582;9.712;2022-12-18T11:06:55;5.00;;;4.30;;
21012;SDS011;10664;53.582;9.712;2022-12-18T11:09:23;5.50;;;4.33;;
21012;SDS011;10664;53.582;9.712;2022-12-18T11:11:50;5.37;;;4.33;;
21012;SDS011;10664;53.582;9.712;2022-12-18T11:14:20;5.83;;;4.80;;
21012;SDS011;10664;53.582;9.712;2022-12-18T11:16:48;5.73;;;4.60;;
21012;SDS011;10664;53.582;9.712;2022-12-18T11:21:47;6.00;;;4.40;;
21012;SDS011;10664;53.582;9.712;2022-12-18T11:24:20;5.40;;;4.10;;
21012;SDS011;10664;53.582;9.712;2022-12-18T11:26:47;5.40;;;4.67;;
21012;SDS011;10664;53.582;9.712;2022-12-18T11:29:18;5.13;;;4.43;;
21012;SDS011;10664;53.582;9.712;2022-12-18T11:31:48;5.67;;;4.33;;
21012;SDS011;10664;53.582;9.712;2022-12-18T11:34:22;5.90;;;4.43;;
21012;SDS011;10664;53.582;9.712;2022-12-18T11:36:51;5.87;;;4.30;;
21012;SDS011;10664;53.582;9.712;2022-12-18T11:39:35;4.33;;;3.93;;
21012;SDS011;10664;53.582;9.712;2022-12-18T11:42:24;5.55;;;4.82;;
21012;SDS011;10664;53.582;9.712;2022-12-18T11:44:52;5.10;;;4.30;;
21012;SDS011;10664;53.582;9.712;2022-12-18T11:50:11;5.83;;;4.37;;
21012;SDS011;10664;53.582;9.712;2022-12-18T11:52:38;6.10;;;4.50;;
21012;SDS011;10664;53.582;9.712;2022-12-18T11:55:09;6.33;;;4.87;;
21012;SDS011;10664;53.582;9.712;2022-12-18T12:00:21;7.20;;;5.17;;
21012;SDS011;10664;53.582;9.712;2022-12-18T12:03:10;6.03;;;4.90;;
21012;SDS011;10664;53.582;9.712;2022-12-18T12:05:44;6.93;;;4.90;;
21012;SDS011;10664;53.582;9.712;2022-12-18T12:16:18;6.83;;;5.40;;
21012;SDS011;10664;53.582;9.712;2022-12-18T12:21:41;6.83;;;5.50;;
21012;SDS011;10664;53.582;9.712;2022-12-18T12:34:38;7.57;;;6.17;;
21012;SDS011;10664;53.582;9.712;2022-12-18T12:37:11;8.30;;;5.93;;
21012;SDS011;10664;53.582;9.712;2022-12-18T12:39:42;9.07;;;7.03;;
21012;SDS011;10664;53.582;9.712;2022-12-18T12:42:20;7.33;;;5.83;;
21012;SDS011;10664;53.582;9.712;2022-12-18T12:45:12;8.43;;;5.97;;
21012;SDS011;10664;53.582;9.712;2022-12-18T12:47:40;7.87;;;5.80;;
21012;SDS011;10664;53.582;9.712;2022-12-18T12:50:12;7.37;;;5.63;;
21012;SDS011;10664;53.582;9.712;2022-12-18T12:52:42;8.10;;;5.93;;
21012;SDS011;10664;53.582;9.712;2022-12-18T12:55:30;6.83;;;5.67;;
21012;SDS011;10664;53.582;9.712;2022-12-18T13:00:24;8.93;;;6.17;;
21012;SDS011;10664;53.582;9.712;2022-12-18T13:02:52;9.00;;;6.60;;
21012;SDS011;10664;53.582;9.712;2022-12-18T13:05:25;8.27;;;6.77;;
21012;SDS011;10664;53.582;9.712;2022-12-18T13:20:33;7.27;;;5.97;;
21012;SDS011;10664;53.582;9.712;2022-12-18T13:23:00;8.27;;;6.50;;
21012;SDS011;10664;53.582;9.712;2022-12-18T13:25:36;9.03;;;6.17;;
21012;SDS011;10664;53.582;9.712;2022-12-18T13:35:42;8.77;;;6.67;;
21012;SDS011;10664;53.582;9.712;2022-12-18T13:38:55;9.87;;;7.53;;
21012;SDS011;10664;53.582;9.712;2022-12-18T13:43:45;10.03;;;7.80;;
21012;SDS011;10664;53.582;9.712;2022-12-18T13:48:49;11.03;;;8.20;;
21012;SDS011;10664;53.582;9.712;2022-12-18T13:51:16;11.70;;;8.33;;
21012;SDS011;10664;53.582;9.712;2022-12-18T13:53:44;11.37;;;8.50;;
21012;SDS011;10664;53.582;9.712;2022-12-18T13:56:20;10.50;;;8.60;;
21012;SDS011;10664;53.582;9.712;2022-12-18T13:59:02;11.80;;;9.17;;
21012;SDS011;10664;53.582;9.712;2022-12-18T14:01:28;12.47;;;8.27;;
21012;SDS011;10664;53.582;9.712;2022-12-18T14:06:57;13.47;;;9.23;;
21012;SDS011;10664;53.582;9.712;2022-12-18T14:09:25;12.83;;;8.90;;
21012;SDS011;10664;53.582;9.712;2022-12-18T14:11:52;12.87;;;9.43;;
21012;SDS011;10664;53.582;9.712;2022-12-18T14:14:40;13.83;;;9.50;;
21012;SDS011;10664;53.582;9.712;2022-12-18T14:17:08;13.00;;;9.67;;
21012;SDS011;10664;53.582;9.712;2022-12-18T14:19:35;12.57;;;9.10;;
21012;SDS011;10664;53.582;9.712;2022-12-18T14:22:01;14.50;;;9.87;;
21012;SDS011;10664;53.582;9.712;2022-12-18T14:24:27;13.70;;;9.67;;
21012;SDS011;10664;53.582;9.712;2022-12-18T14:26:56;12.93;;;9.30;;
21012;SDS011;10664;53.582;9.712;2022-12-18T14:29:37;13.17;;;9.13;;
21012;SDS011;10664;53.582;9.712;2022-12-18T14:32:10;14.93;;;10.80;;
21012;SDS011;10664;53.582;9.712;2022-12-18T14:34:37;15.60;;;10.67;;
21012;SDS011;10664;53.582;9.712;2022-12-18T14:37:03;14.63;;;9.90;;
21012;SDS011;10664;53.582;9.712;2022-12-18T14:39:29;15.77;;;10.43;;
21012;SDS011;10664;53.582;9.712;2022-12-18T14:41:55;17.97;;;11.50;;
21012;SDS011;10664;53.582;9.712;2022-12-18T14:44:21;17.27;;;10.53;;
21012;SDS011;10664;53.582;9.712;2022-12-18T14:46:48;18.37;;;11.37;;
21012;SDS011;10664;53.582;9.712;2022-12-18T14:49:31;16.77;;;11.07;;
21012;SDS011;10664;53.582;9.712;2022-12-18T14:52:04;17.97;;;10.53;;
21012;SDS011;10664;53.582;9.712;2022-12-18T14:54:31;19.40;;;11.70;;
21012;SDS011;10664;53.582;9.712;2022-12-18T14:57:02;17.40;;;10.93;;
21012;SDS011;10664;53.582;9.712;2022-12-18T14:59:28;18.57;;;11.43;;
21012;SDS011;10664;53.582;9.712;2022-12-18T15:01:59;19.77;;;11.80;;
21012;SDS011;10664;53.582;9.712;2022-12-18T15:04:33;18.67;;;11.33;;
21012;SDS011;10664;53.582;9.712;2022-12-18T15:07:04;16.83;;;11.40;;
21012;SDS011;10664;53.582;9.712;2022-12-18T15:09:31;20.13;;;12.47;;
21012;SDS011;10664;53.582;9.712;2022-12-18T15:11:58;17.87;;;12.37;;
21012;SDS011;10664;53.582;9.712;2022-12-18T15:14:31;22.53;;;13.10;;
21012;SDS011;10664;53.582;9.712;2022-12-18T15:16:58;17.87;;;12.00;;
21012;SDS011;10664;53.582;9.712;2022-12-18T15:19:40;18.90;;;11.60;;
21012;SDS011;10664;53.582;9.712;2022-12-18T15:22:17;21.93;;;13.27;;
21012;SDS011;10664;53.582;9.712;2022-12-18T15:24:44;19.43;;;12.37;;
21012;SDS011;10664;53.582;9.712;2022-12-18T15:27:23;20.57;;;13.33;;
21012;SDS011;10664;53.582;9.712;2022-12-18T15:32:35;22.30;;;13.43;;
21012;SDS011;10664;53.582;9.712;2022-12-18T15:35:23;17.90;;;11.50;;
21012;SDS011;10664;53.582;9.712;2022-12-18T15:37:48;20.30;;;12.20;;
21012;SDS011;10664;53.582;9.712;2022-12-18T15:40:19;22.07;;;13.77;;
21012;SDS011;10664;53.582;9.712;2022-12-18T15:42:45;20.13;;;13.17;;
21012;SDS011;10664;53.582;9.712;2022-12-18T15:45:30;22.23;;;13.23;;
21012;SDS011;10664;53.582;9.712;2022-12-18T15:47:56;20.20;;;13.17;;
21012;SDS011;10664;53.582;9.712;2022-12-18T15:50:22;24.30;;;14.17;;
21012;SDS011;10664;53.582;9.712;2022-12-18T15:52:49;24.13;;;14.30;;
21012;SDS011;10664;53.582;9.712;2022-12-18T15:55:16;22.33;;;13.20;;
21012;SDS011;10664;53.582;9.712;2022-12-18T15:58:01;22.47;;;13.70;;
21012;SDS011;10664;53.582;9.712;2022-12-18T16:00:27;23.53;;;13.93;;
21012;SDS011;10664;53.582;9.712;2022-12-18T16:02:53;23.87;;;13.97;;
21012;SDS011;10664;53.582;9.712;2022-12-18T16:05:19;21.57;;;13.57;;
21012;SDS011;10664;53.582;9.712;2022-12-18T16:07:46;22.23;;;13.90;;
21012;SDS011;10664;53.582;9.712;2022-12-18T16:10:13;23.00;;;15.07;;
21012;SDS011;10664;53.582;9.712;2022-12-18T16:12:39;23.37;;;14.33;;
21012;SDS011;10664;53.582;9.712;2022-12-18T16:15:06;22.90;;;14.90;;
21012;SDS011;10664;53.582;9.712;2022-12-18T16:17:32;23.07;;;14.50;;
21012;SDS011;10664;53.582;9.712;2022-12-18T16:19:58;21.20;;;13.47;;
21012;SDS011;10664;53.582;9.712;2022-12-18T16:22:28;22.63;;;14.20;;